Latest Weather Observations for Low Rocky Point

IDT60801

Issued at 7:51 am EST Thursday 1 October 2020 (issued every 10 minutes, with the page automatically refreshed every 10 minutes)

About weather observations | Map of weather stations | Latest weather observations for TAS | Other Formats
Station Details ID: 097080 Name: LOW ROCKY POINT Lat: -42.98 Lon: 145.50 Height: 34.0 m
Data from the previous 72 hours. | See also: Recent months at Low Rocky Point
Date/Time
EST
Temp
°C
App
Temp
°C
Dew
Point
°C
Rel
Hum
%
Delta-T
°C
Wind Press
QNH
hPa
Press
MSL
hPa
Rain since
9am
mm
Dir  Spd
km/h
Gust
km/h
Spd
kts
Gust
kts
01/07:30am 10.3 2.6 5.5 72 2.2 W 35 43 19 23 1007.1 1007.2 -
01/07:00am 10.1 0.7 5.5 73 2.1 W 44 52 24 28 1006.6 1006.7 -
01/06:30am 9.8 1.9 6.0 77 1.8 W 37 44 20 24 1006.2 1006.3 -
01/06:00am 10.0 2.5 6.5 79 1.6 W 35 44 19 24 1005.6 1005.7 -
01/05:30am 9.7 0.6 6.1 78 1.7 W 43 50 23 27 1005.0 1005.1 -
01/05:00am 10.1 0.6 6.6 79 1.6 W 46 54 25 29 1004.4 1004.4 -
01/04:30am 9.8 1.0 7.4 85 1.1 W 43 50 23 27 1004.0 1004.0 -
01/04:00am 9.2 1.6 7.5 89 0.8 WNW 37 48 20 26 1003.7 1003.7 -
01/03:30am 8.2 -2.5 6.3 88 0.9 W 52 76 28 41 1003.4 1003.4 -
01/03:16am 10.0 -0.2 7.1 82 1.4 WNW 50 70 27 38 1002.8 1002.8 -
01/03:00am 10.3 0.6 7.7 84 1.3 WNW 48 61 26 33 1002.5 1002.5 -
01/02:30am 10.3 0.4 8.1 86 1.1 WNW 50 61 27 33 1002.3 1002.3 -
01/02:00am 9.8 1.1 7.9 88 0.9 WNW 43 72 23 39 1002.4 1002.4 -
01/01:42am 10.6 0.9 7.5 81 1.5 WNW 48 69 26 37 1002.2 1002.2 -
01/01:30am 10.4 0.8 7.8 84 1.3 WNW 48 61 26 33 1002.1 1002.1 -
01/01:00am 10.8 1.5 7.7 81 1.5 WNW 46 59 25 32 1001.7 1001.7 -
01/12:30am 10.7 1.1 8.1 84 1.3 WNW 48 59 26 32 1001.7 1001.7 -
01/12:00am 10.5 1.8 8.3 86 1.1 WNW 44 54 24 29 1001.4 1001.4 -
 
Date/Time
EST
Temp
°C
App
Temp
°C
Dew
Point
°C
Rel
Hum
%
Delta-T
°C
Wind Press
QNH
hPa
Press
MSL
hPa
Rain since
9am
mm
Dir  Spd
km/h
Gust
km/h
Spd
kts
Gust
kts
30/11:30pm 11.1 2.1 8.7 85 1.2 WNW 46 57 25 31 1001.2 1001.2 -
30/11:00pm 11.2 1.8 8.8 85 1.2 NW 48 63 26 34 1001.1 1001.1 -
30/10:30pm 11.4 2.6 9.5 88 1.0 NW 46 57 25 31 1001.2 1001.2 -
30/10:00pm 11.5 2.3 9.6 88 1.0 NW 48 59 26 32 1001.2 1001.2 -
30/09:30pm 11.4 1.9 9.7 89 0.9 NW 50 65 27 35 1001.1 1001.1 -
30/09:00pm 11.4 0.6 9.8 90 0.8 NW 57 69 31 37 1000.7 1000.7 -
30/08:30pm 11.4 1.3 10.5 94 0.5 NW 54 65 29 35 1000.3 1000.3 -
30/08:00pm 11.6 3.7 11.4 99 0.1 NW 44 56 24 30 999.9 999.9 -
30/07:30pm 11.7 1.5 11.5 99 0.1 NW 56 69 30 37 1000.0 1000.0 -
30/07:00pm 11.8 2.4 11.6 99 0.1 NW 52 67 28 36 999.8 999.8 -
30/06:40pm 11.8 4.9 11.6 99 0.1 NNW 39 67 21 36 999.6 999.6 -
30/06:39pm 11.8 5.7 11.6 99 0.1 NNW 35 59 19 32 999.7 999.7 -
30/06:30pm 11.6 6.7 11.3 98 0.2 NNW 28 35 15 19 999.5 999.5 -
30/06:00pm 11.7 6.3 10.8 94 0.5 NNW 30 44 16 24 999.5 999.5 -
30/05:30pm 12.1 6.4 11.0 93 0.6 N 32 43 17 23 999.4 999.4 -
30/05:00pm 11.9 5.5 10.8 93 0.6 N 35 48 19 26 999.6 999.6 -
30/04:45pm 11.9 6.0 10.6 92 0.7 N 32 56 17 30 999.8 999.8 -
30/04:30pm 12.0 6.1 10.4 90 0.8 N 32 43 17 23 1000.0 1000.0 -
30/04:00pm 12.6 6.0 10.0 84 1.3 N 35 48 19 26 1000.2 1000.2 -
30/03:30pm 13.2 6.9 9.8 80 1.7 N 33 48 18 26 1000.7 1000.7 -
30/03:00pm 14.6 7.9 9.6 72 2.6 N 35 52 19 28 1000.9 1000.9 -
30/02:30pm 15.3 8.5 9.4 68 3.0 N 35 50 19 27 1001.2 1001.2 -
30/02:11pm 15.2 8.4 9.1 67 3.1 NNW 35 54 19 29 1001.4 1001.4 -
30/02:00pm 15.2 8.4 9.1 67 3.1 N 35 46 19 25 1001.6 1001.6 -
30/01:40pm 15.3 8.5 9.2 67 3.1 N 35 54 19 29 1001.9 1001.9 -
30/01:30pm 15.3 8.1 9.2 67 3.1 N 37 50 20 27 1001.9 1001.9 -
30/01:18pm 15.1 8.0 9.5 69 2.9 N 37 57 20 31 1002.1 1002.1 -
30/01:00pm 15.4 7.8 9.1 66 3.3 NNW 39 48 21 26 1002.4 1002.4 -
30/12:30pm 16.5 8.8 8.5 59 4.1 NNW 39 65 21 35 1002.8 1002.8 -
30/12:00pm 18.3 9.8 9.1 55 4.8 NNW 44 63 24 34 1003.0 1003.0 -
30/11:30am 18.3 9.2 8.6 53 5.0 NNW 46 65 25 35 1003.4 1003.4 -
30/11:00am 16.9 7.7 7.8 55 4.6 NNW 46 74 25 40 1003.9 1003.9 -
30/10:37am 16.3 7.6 7.8 57 4.3 NNW 43 61 23 33 1004.6 1004.6 -
30/10:30am 16.6 7.4 8.1 57 4.3 NNW 46 63 25 34 1004.7 1004.7 -
30/10:03am 15.5 7.6 8.0 61 3.8 NNW 39 57 21 31 1005.3 1005.4 -
30/10:00am 15.4 7.9 7.9 61 3.8 NNW 37 54 20 29 1005.3 1005.4 -
30/09:30am 15.4 8.0 8.2 62 3.6 NNW 37 56 20 30 1005.6 1005.7 -
30/09:00am 14.9 7.1 8.4 65 3.3 N 39 61 21 33 1005.7 1005.8 -
30/08:39am 14.7 7.3 8.4 66 3.2 N 37 56 20 30 1006.1 1006.2 -
30/08:30am 14.7 7.3 8.4 66 3.2 N 37 52 20 28 1006.1 1006.2 -
30/08:16am 14.7 8.1 8.6 67 3.1 N 33 52 18 28 1006.3 1006.4 -
30/08:00am 14.0 7.6 8.4 69 2.8 N 32 44 17 24 1006.4 1006.5 -
30/07:33am 13.7 7.2 8.1 69 2.8 N 32 56 17 30 1006.6 1006.7 -
30/07:30am 13.6 7.5 8.2 70 2.7 N 30 44 16 24 1006.8 1006.9 -
30/07:00am 13.0 7.2 7.9 71 2.5 N 28 41 15 22 1006.8 1006.9 -
30/06:30am 12.8 6.5 7.5 70 2.6 N 30 44 16 24 1007.1 1007.2 -
30/06:06am 12.9 6.6 7.6 70 2.6 N 30 48 16 26 1007.2 1007.3 -
30/06:00am 12.8 6.0 7.5 70 2.6 N 33 46 18 25 1007.3 1007.4 -
30/05:30am 13.2 5.9 7.2 67 2.9 N 35 52 19 28 1007.5 1007.6 -
30/05:21am 13.1 6.2 7.1 67 2.9 N 33 52 18 28 1007.6 1007.7 -
30/05:00am 13.0 6.3 7.2 68 2.8 N 32 44 17 24 1007.8 1007.9 -
30/04:30am 12.3 6.0 7.2 71 2.5 NNE 30 41 16 22 1008.1 1008.2 -
30/04:00am 11.6 5.6 6.9 73 2.2 NNE 28 35 15 19 1008.4 1008.5 -
30/03:30am 11.6 5.1 6.5 71 2.4 NNE 30 39 16 21 1008.7 1008.8 -
30/03:00am 11.1 4.6 6.3 72 2.3 NNE 30 41 16 22 1009.3 1009.4 -
30/02:30am 10.4 4.2 6.0 74 2.0 NNE 28 39 15 21 1009.9 1010.0 -
30/02:00am 9.9 4.1 6.1 77 1.8 NNE 26 33 14 18 1010.5 1010.6 -
30/01:30am 9.2 5.5 6.3 82 1.3 N 15 24 8 13 1011.4 1011.5 -
30/01:00am 9.2 5.2 6.8 85 1.1 N 17 24 9 13 1011.9 1012.0 -
30/12:30am 9.2 5.8 7.5 89 0.8 N 15 20 8 11 1012.5 1012.6 -
30/12:00am 9.3 5.5 7.6 89 0.8 NNE 17 22 9 12 1013.1 1013.2 -
 
Date/Time
EST
Temp
°C
App
Temp
°C
Dew
Point
°C
Rel
Hum
%
Delta-T
°C
Wind Press
QNH
hPa
Press
MSL
hPa
Rain since
9am
mm
Dir  Spd
km/h
Gust
km/h
Spd
kts
Gust
kts
29/11:30pm 9.7 5.9 7.5 86 1.0 NNE 17 20 9 11 1013.7 1013.8 -
29/11:00pm 9.8 5.6 8.1 89 0.8 N 20 24 11 13 1014.2 1014.3 -
29/10:30pm 9.1 5.3 7.7 91 0.7 NNE 17 20 9 11 1014.7 1014.8 -
29/10:00pm 9.0 5.6 7.6 91 0.7 NNE 15 15 8 8 1015.1 1015.2 -
29/09:30pm 8.9 5.9 7.5 91 0.7 NE 13 15 7 8 1015.7 1015.7 -
29/09:00pm 9.0 6.3 7.5 90 0.7 ENE 11 13 6 7 1016.0 1016.0 -
29/08:30pm 9.1 6.0 7.4 89 0.8 ENE 13 13 7 7 1016.3 1016.3 -
29/08:00pm 9.3 6.2 7.3 87 0.9 ENE 13 15 7 8 1016.7 1016.7 -
29/07:30pm 9.3 6.9 7.1 86 1.0 E 9 11 5 6 1017.0 1017.0 -
29/07:00pm 9.5 7.1 6.9 84 1.2 ESE 9 11 5 6 1017.2 1017.2 -
29/06:30pm 9.7 7.8 6.6 81 1.4 SSE 6 9 3 5 1017.2 1017.2 -
29/06:00pm 10.7 8.8 7.4 80 1.6 SSE 7 9 4 5 1017.3 1017.3 -
29/05:30pm 11.4 9.6 7.9 79 1.7 SSE 7 9 4 5 1017.5 1017.5 -
29/05:00pm 11.7 9.9 7.8 77 1.9 S 7 9 4 5 1017.3 1017.3 -
29/04:30pm 12.1 10.3 7.8 75 2.1 S 7 9 4 5 1017.3 1017.3 -
29/04:00pm 12.7 10.9 8.0 73 2.3 WSW 7 11 4 6 1017.4 1017.4 -
29/03:30pm 13.1 11.3 8.0 71 2.5 W 7 11 4 6 1017.7 1017.7 -
29/03:00pm 12.7 10.9 8.0 73 2.3 W 7 11 4 6 1018.3 1018.3 -
29/02:30pm 12.8 10.6 7.7 71 2.5 WSW 9 11 5 6 1018.6 1018.6 -
29/02:00pm 12.8 9.8 7.9 72 2.4 W 13 17 7 9 1019.1 1019.1 -
29/01:30pm 13.1 8.8 8.0 71 2.5 WNW 20 26 11 14 1019.7 1019.7 -
29/01:00pm 13.2 9.0 8.3 72 2.4 WNW 20 24 11 13 1020.3 1020.3 -
29/12:30pm 13.6 9.8 8.9 73 2.4 WNW 19 24 10 13 1020.9 1020.9 -
29/12:00pm 13.4 9.4 9.1 75 2.2 WNW 20 26 11 14 1021.7 1021.7 -
29/11:30am 13.1 8.9 8.4 73 2.3 NW 20 28 11 15 1022.4 1022.4 -
29/11:00am 13.1 9.3 9.0 76 2.1 NW 19 24 10 13 1022.7 1022.7 -
29/10:30am 12.5 8.0 8.4 76 2.0 NW 22 28 12 15 1023.3 1023.3 -
29/10:00am 12.0 7.8 8.3 78 1.8 NW 20 24 11 13 1023.7 1023.7 -
29/09:30am 11.0 7.7 7.9 81 1.5 WNW 15 20 8 11 1023.9 1023.9 -
29/09:00am 11.5 9.6 9.2 86 1.1 NW 9 13 5 7 1023.8 1023.8 -
29/08:30am 9.9 7.9 8.5 91 0.7 NE 9 13 5 7 1023.8 1023.8 -
29/08:00am 8.9 6.1 8.5 97 0.2 NE 13 17 7 9 1024.1 1024.1 -
29/07:30am 7.6 5.3 7.5 99 0.0 NE 9 13 5 7 1024.2 1024.2 -
29/07:00am 6.2 3.2 6.1 99 0.0 NE 11 15 6 8 1024.0 1024.0 -
29/06:30am 4.5 0.8 4.4 99 0.0 NE 13 15 7 8 1023.8 1023.8 -
29/06:00am 4.4 0.7 4.3 99 0.0 NE 13 15 7 8 1023.9 1023.9 -
29/05:30am 4.3 0.2 4.2 99 0.0 NE 15 17 8 9 1023.9 1023.9 -
29/05:00am 4.4 0.7 4.3 99 0.0 NE 13 15 7 8 1024.0 1024.0 -
29/04:30am 4.2 1.2 4.1 99 0.0 ENE 9 11 5 6 1024.2 1024.2 -
29/04:00am 4.5 0.8 4.4 99 0.0 ENE 13 15 7 8 1024.3 1024.3 -
29/03:30am 4.4 -0.1 4.3 99 0.0 NE 17 19 9 10 1024.4 1024.4 -
29/03:00am 5.0 1.4 4.9 99 0.0 NE 13 15 7 8 1024.5 1024.5 -
29/02:30am 5.3 1.0 5.2 99 0.0 NNE 17 20 9 11 1024.8 1024.8 -
29/02:00am 5.5 0.9 5.4 99 0.0 NNE 19 20 10 11 1025.1 1025.1 -
29/01:30am 5.7 1.1 5.6 99 0.0 NNE 19 20 10 11 1025.6 1025.6 -
29/01:00am 5.8 1.2 5.5 98 0.1 NNE 19 20 10 11 1025.7 1025.7 -
29/12:30am 6.2 1.7 5.9 98 0.1 NNE 19 20 10 11 1026.0 1026.0 -
29/12:00am 6.5 2.4 6.1 97 0.2 NNE 17 19 9 10 1026.3 1026.3 -
 
Date/Time
EST
Temp
°C
App
Temp
°C
Dew
Point
°C
Rel
Hum
%
Delta-T
°C
Wind Press
QNH
hPa
Press
MSL
hPa
Rain since
9am
mm
Dir  Spd
km/h
Gust
km/h
Spd
kts
Gust
kts
28/11:30pm 6.8 3.1 6.4 97 0.2 NNE 15 19 8 10 1026.5 1026.5 -
28/11:00pm 7.1 3.8 6.5 96 0.3 NNE 13 17 7 9 1026.9 1026.9 -
28/10:30pm 7.3 4.0 6.6 95 0.3 NE 13 13 7 7 1027.0 1027.0 -
28/10:00pm 7.4 5.2 6.3 93 0.5 NE 7 9 4 5 1027.2 1027.2 -
28/09:30pm 7.7 4.8 6.6 93 0.5 SSE 11 15 6 8 1027.4 1027.4 -
28/09:00pm 7.7 4.8 6.5 92 0.5 S 11 15 6 8 1027.6 1027.6 -
28/08:30pm 8.2 5.0 7.0 92 0.6 S 13 19 7 10 1027.7 1027.7 -
28/08:00pm 7.7 5.1 6.0 89 0.8 SSW 9 11 5 6 1027.7 1027.7 -
28/07:30pm 8.4 5.9 6.7 89 0.8 SW 9 15 5 8 1027.7 1027.7 -
28/07:00pm 9.2 5.7 7.3 88 0.9 SSW 15 20 8 11 1027.6 1027.6 -
28/06:30pm 9.1 6.3 6.9 86 1.0 SSW 11 13 6 7 1027.4 1027.4 -
28/06:00pm 9.3 6.2 7.1 86 1.0 WSW 13 19 7 10 1027.4 1027.4 -
28/05:30pm 9.4 5.8 6.7 83 1.3 SSW 15 20 8 11 1027.1 1027.1 -
28/05:00pm 10.4 7.3 7.1 80 1.6 SSW 13 19 7 10 1026.7 1026.7 -
28/04:30pm 11.8 9.2 7.9 77 1.9 WSW 11 19 6 10 1026.6 1026.6 -
28/04:00pm 10.6 7.6 7.7 82 1.4 SW 13 17 7 9 1026.5 1026.5 -
28/03:30pm 10.7 8.3 8.8 88 0.9 WSW 11 17 6 9 1026.5 1026.5 -
28/03:00pm 10.8 8.7 8.4 85 1.2 W 9 17 5 9 1026.6 1026.6 -
28/02:30pm 12.2 9.4 8.5 78 1.8 WSW 13 19 7 10 1026.7 1026.7 -
28/02:00pm 11.2 8.7 8.1 81 1.5 SSW 11 17 6 9 1026.8 1026.8 -
28/01:30pm 11.5 8.6 8.2 80 1.6 SW 13 17 7 9 1026.9 1026.9 -
28/01:00pm 11.6 8.0 8.5 81 1.5 WSW 17 26 9 14 1026.9 1026.9 -
28/12:30pm 10.7 6.0 7.9 83 1.4 SW 22 30 12 16 1027.2 1027.2 -
28/12:00pm 11.2 6.9 7.7 79 1.7 SW 20 30 11 16 1027.3 1027.3 -
28/11:30am 11.3 6.7 8.2 81 1.5 SSW 22 33 12 18 1027.2 1027.2 -
28/11:00am 11.7 7.4 8.0 78 1.8 SW 20 26 11 14 1027.2 1027.2 -
28/10:30am 11.8 7.5 7.7 76 2.0 SW 20 26 11 14 1027.5 1027.5 -
28/10:00am 11.6 8.0 8.5 81 1.5 WSW 17 24 9 13 1027.5 1027.5 -
28/09:30am 10.6 6.5 7.8 83 1.4 SW 19 24 10 13 1027.4 1027.4 -
28/09:00am 10.5 7.0 8.6 88 0.9 SSW 17 24 9 13 1027.4 1027.4 -
28/08:30am 9.4 5.4 8.3 93 0.5 WSW 19 26 10 14 1027.3 1027.3 -
28/08:00am 9.3 5.3 8.1 92 0.6 SW 19 26 10 14 1027.3 1027.3 -

Other formats

Comma delimited format used in spreadsheet applications
http://www.bom.gov.au/fwo/IDT60801/IDT60801.95961.axf

JavaScript Object Notation format (JSON) in row-major order
http://www.bom.gov.au/fwo/IDT60801/IDT60801.95961.json

Data quality

Most of these data are generated automatically and are frequently updated. Quality checks on data are not normally performed. It is possible for incorrect values to appear. Refer to information at About Latest Weather Observations and please check the disclaimer before using these data.